Wilder, Minnesota
Current Conditions -  °F | °C
As of 9:54 AM on Friday 24 Oct 2014 (Local Time) from KMWM Reporting Station
Clear Clear  
Wind Chill: 55°   Ceiling: Unl
Heat Index: 55°   Visibility: 7mi
Dew Point: 52°   Wind: 7mph
Humidity: 88%   Direction: 240°WSW
Pressure: 29.87"   Gusts: NA
Location:  43.9264°N, 95.2282°W
Report Text: KMWM 241454Z AUTO 24006KT 7SM CLR 13/11 A2987 RMK AO2
Loading
Personal Weather Stations






























Interactive Weather Map
Tropical Storm Tracking
New forecast layout! Learn more

10-Day Weather Forecast

Advertisements
Track Severe Weather on mobile